createdAt,value
2016-04-08T00:00:09.224Z,0
2016-04-08T00:01:09.227Z,0
2016-04-08T00:02:09.229Z,0
2016-04-08T00:03:09.248Z,0
2016-04-08T00:04:09.220Z,0
2016-04-08T00:05:09.223Z,0
2016-04-08T00:06:09.209Z,0
2016-04-08T00:07:09.212Z,0
2016-04-08T00:08:09.184Z,0
2016-04-08T00:09:09.218Z,0
2016-04-08T00:10:09.189Z,0
2016-04-08T00:11:09.192Z,0
2016-04-08T00:12:09.179Z,0
2016-04-08T00:13:09.307Z,0
2016-04-08T00:14:09.032Z,0
2016-04-08T00:15:09.191Z,0
2016-04-08T00:16:09.193Z,0
2016-04-08T00:17:09.180Z,0
2016-04-08T00:18:09.230Z,0
2016-04-08T00:19:09.186Z,0
2016-04-08T00:20:12.392Z,0
2016-04-08T00:21:09.176Z,0
2016-04-08T00:22:09.179Z,0
2016-04-08T00:23:09.150Z,0
2016-04-08T00:24:09.184Z,0
2016-04-08T00:25:09.139Z,0
2016-04-08T00:26:09.142Z,0
2016-04-08T00:27:09.129Z,0
2016-04-08T00:28:09.163Z,0
2016-04-08T00:29:09.150Z,0
2016-04-08T00:30:09.152Z,0
2016-04-08T00:31:09.139Z,0
2016-04-08T00:32:09.127Z,0
2016-04-08T00:33:09.129Z,0
2016-04-08T00:34:09.164Z,0
2016-04-08T00:35:09.135Z,0
2016-04-08T00:36:09.200Z,0
2016-04-08T00:37:09.109Z,0
2016-04-08T00:38:09.127Z,0
2016-04-08T00:39:09.130Z,0
2016-04-08T00:40:09.133Z,0
2016-04-08T00:41:09.135Z,0
2016-04-08T00:42:09.154Z,0
2016-04-08T00:43:09.140Z,0
2016-04-08T00:44:09.081Z,0
2016-04-08T00:45:09.115Z,0
2016-04-08T00:46:09.117Z,0
2016-04-08T00:47:09.089Z,0
2016-04-08T00:48:09.107Z,0
2016-04-08T00:49:09.110Z,0
2016-04-08T00:50:09.098Z,0
2016-04-08T00:51:09.084Z,0
2016-04-08T00:52:09.087Z,0
2016-04-08T00:53:09.120Z,0
2016-04-08T00:54:09.076Z,0
2016-04-08T00:55:09.095Z,0
2016-04-08T00:56:09.066Z,0
2016-04-08T00:57:09.101Z,0
2016-04-08T00:58:09.072Z,0
2016-04-08T00:59:09.059Z,0
2016-04-08T01:00:09.061Z,0
2016-04-08T01:01:09.064Z,0
2016-04-08T01:02:09.083Z,0
2016-04-08T01:03:09.069Z,0
2016-04-08T01:04:09.056Z,0
2016-04-08T01:05:09.059Z,0
2016-04-08T01:06:09.046Z,0
2016-04-08T01:07:09.049Z,0
2016-04-08T01:08:09.052Z,0
2016-04-08T01:09:09.038Z,0
2016-04-08T01:10:09.027Z,0
2016-04-08T01:11:09.044Z,0
2016-04-08T01:12:09.032Z,0
2016-04-08T01:13:08.925Z,0
2016-04-08T01:14:09.052Z,0
2016-04-08T01:15:09.024Z,0
2016-04-08T01:16:09.026Z,0
2016-04-08T01:17:09.045Z,0
2016-04-08T01:18:09.032Z,0
2016-04-08T01:19:09.003Z,0
2016-04-08T01:20:09.006Z,0
2016-04-08T01:21:09.023Z,0
2016-04-08T01:22:09.089Z,0
2016-04-08T01:23:08.998Z,0
2016-04-08T01:24:09.017Z,0
2016-04-08T01:25:09.020Z,0
2016-04-08T01:26:08.990Z,0
2016-04-08T01:27:08.962Z,0
2016-04-08T01:28:09.089Z,0
2016-04-08T01:29:08.998Z,0
2016-04-08T01:30:09.017Z,0
2016-04-08T01:31:08.878Z,0
2016-04-08T01:32:08.991Z,0
2016-04-08T01:33:08.978Z,0
2016-04-08T01:34:08.997Z,0
2016-04-08T01:35:08.969Z,0
2016-04-08T01:36:08.972Z,0
2016-04-08T01:37:09.005Z,0
2016-04-08T01:38:08.977Z,0
2016-04-08T01:39:08.979Z,0
2016-04-08T01:40:08.950Z,0
2016-04-08T01:41:08.969Z,0
2016-04-08T01:42:08.971Z,0
2016-04-08T01:43:09.083Z,0
2016-04-08T01:44:08.976Z,0
2016-04-08T01:45:08.963Z,0
2016-04-08T01:46:08.951Z,0
2016-04-08T01:47:08.954Z,0
2016-04-08T01:48:08.957Z,0
2016-04-08T01:49:08.959Z,0
2016-04-08T01:50:08.962Z,0
2016-04-08T01:51:08.932Z,0
2016-04-08T01:52:08.904Z,0
2016-04-08T01:53:08.923Z,0
2016-04-08T01:54:08.925Z,0
2016-04-08T01:55:08.943Z,0
2016-04-08T01:56:08.914Z,0
2016-04-08T01:57:08.933Z,0
2016-04-08T01:58:08.967Z,0
2016-04-08T01:59:08.939Z,0
2016-04-08T02:00:08.895Z,0
2016-04-08T02:01:08.897Z,0
2016-04-08T02:02:08.916Z,0
2016-04-08T02:03:08.872Z,0
2016-04-08T02:04:08.922Z,0
2016-04-08T02:05:08.861Z,0
2016-04-08T02:06:08.895Z,0
2016-04-08T02:07:08.929Z,0
2016-04-08T02:08:08.883Z,0
2016-04-08T02:09:08.870Z,0
2016-04-08T02:10:08.889Z,0
2016-04-08T02:11:08.860Z,0
2016-04-08T02:12:08.878Z,0
2016-04-08T02:13:09.037Z,0
2016-04-08T02:14:08.852Z,0
2016-04-08T02:15:08.870Z,0
2016-04-08T02:16:08.842Z,0
2016-04-08T02:17:08.860Z,0
2016-04-08T02:18:08.863Z,0
2016-04-08T02:19:08.865Z,0
2016-04-08T02:20:08.883Z,0
2016-04-08T02:21:08.840Z,0
2016-04-08T02:22:08.873Z,0
2016-04-08T02:23:08.845Z,0
2016-04-08T02:24:08.879Z,0
2016-04-08T02:25:08.835Z,0
2016-04-08T02:26:08.822Z,0
2016-04-08T02:27:08.841Z,0
2016-04-08T02:28:08.890Z,0
2016-04-08T02:29:08.830Z,0
2016-04-08T02:30:08.817Z,0
2016-04-08T02:31:08.804Z,0
2016-04-08T02:32:08.806Z,0
2016-04-08T02:33:08.809Z,0
2016-04-08T02:34:08.796Z,0
2016-04-08T02:35:08.815Z,0
2016-04-08T02:36:08.834Z,0
2016-04-08T02:37:08.789Z,0
2016-04-08T02:38:08.792Z,0
2016-04-08T02:39:08.779Z,0
2016-04-08T02:40:08.797Z,0
2016-04-08T02:41:08.784Z,0
2016-04-08T02:42:08.786Z,0
2016-04-08T02:43:08.805Z,0
2016-04-08T02:44:08.777Z,0
2016-04-08T02:45:08.763Z,0
2016-04-08T02:46:08.766Z,0
2016-04-08T02:47:08.769Z,0
2016-04-08T02:48:08.756Z,0
2016-04-08T02:49:08.774Z,0
2016-04-08T02:50:08.777Z,0
2016-04-08T02:51:08.764Z,0
2016-04-08T02:52:08.752Z,0
2016-04-08T02:53:08.754Z,0
2016-04-08T02:54:08.741Z,0
2016-04-08T02:55:08.760Z,0
2016-04-08T02:56:08.746Z,0
2016-04-08T02:57:08.749Z,0
2016-04-08T02:58:08.735Z,0
2016-04-08T02:59:08.754Z,0
2016-04-08T03:00:08.741Z,0
2016-04-08T03:01:08.791Z,0
2016-04-08T03:02:08.716Z,0
2016-04-08T03:03:08.703Z,0
2016-04-08T03:04:08.737Z,0
2016-04-08T03:05:08.692Z,0
2016-04-08T03:06:08.711Z,0
2016-04-08T03:07:08.698Z,0
2016-04-08T03:08:08.559Z,0
2016-04-08T03:09:08.703Z,0
2016-04-08T03:10:08.736Z,0
2016-04-08T03:11:08.692Z,0
2016-04-08T03:12:08.680Z,0
2016-04-08T03:13:08.682Z,0
2016-04-08T03:14:08.670Z,0
2016-04-08T03:15:08.656Z,0
2016-04-08T03:16:08.659Z,0
2016-04-08T03:17:08.678Z,0
2016-04-08T03:18:08.649Z,0
2016-04-08T03:19:08.652Z,0
2016-04-08T03:20:08.639Z,0
2016-04-08T03:21:08.501Z,0
2016-04-08T03:22:08.660Z,0
2016-04-08T03:23:08.632Z,0
2016-04-08T03:24:08.635Z,0
2016-04-08T03:25:08.622Z,0
2016-04-08T03:26:08.499Z,0
2016-04-08T03:27:08.658Z,0
2016-04-08T03:28:08.646Z,0
2016-04-08T03:29:08.601Z,0
2016-04-08T03:30:08.604Z,0
2016-04-08T03:31:08.606Z,0
2016-04-08T03:32:08.624Z,0
2016-04-08T03:33:08.595Z,0
2016-04-08T03:34:08.598Z,0
2016-04-08T03:35:08.650Z,0
2016-04-08T03:36:08.681Z,0
2016-04-08T03:37:08.697Z,0
2016-04-08T03:38:08.587Z,0
2016-04-08T03:39:08.805Z,0
2016-04-08T03:40:08.799Z,0
2016-04-08T03:41:08.848Z,0
2016-04-08T03:42:08.835Z,0
2016-04-08T03:43:08.885Z,0
2016-04-08T03:44:08.872Z,0
2016-04-08T03:45:08.883Z,0
2016-04-08T03:46:08.844Z,0
2016-04-08T03:47:08.851Z,0
2016-04-08T03:48:08.859Z,0
2016-04-08T03:49:08.883Z,0
2016-04-08T03:50:08.858Z,0
2016-04-08T03:51:08.863Z,0
2016-04-08T03:52:08.899Z,0
2016-04-08T03:53:08.872Z,0
2016-04-08T03:54:08.861Z,0
2016-04-08T03:55:08.865Z,0
2016-04-08T03:56:08.868Z,0
2016-04-08T03:57:08.855Z,0
2016-04-08T03:58:08.844Z,0
2016-04-08T03:59:08.862Z,0
2016-04-08T04:00:08.850Z,0
2016-04-08T04:01:08.853Z,0
2016-04-08T04:02:08.826Z,0
2016-04-08T04:03:08.844Z,0
2016-04-08T04:04:08.816Z,0
2016-04-08T04:05:08.835Z,0
2016-04-08T04:06:08.852Z,0
2016-04-08T04:07:08.855Z,0
2016-04-08T04:08:08.842Z,0
2016-04-08T04:09:08.813Z,0
2016-04-08T04:10:08.816Z,0
2016-04-08T04:11:08.850Z,0
2016-04-08T04:12:08.821Z,0
2016-04-08T04:13:08.809Z,0
2016-04-08T04:14:08.811Z,0
2016-04-08T04:15:08.799Z,0
2016-04-08T04:16:08.785Z,0
2016-04-08T04:17:08.773Z,0
2016-04-08T04:18:08.823Z,0
2016-04-08T04:19:08.778Z,0
2016-04-08T04:20:08.781Z,0
2016-04-08T04:21:08.783Z,0
2016-04-08T04:22:08.770Z,0
2016-04-08T04:23:08.789Z,0
2016-04-08T04:24:08.776Z,0
2016-04-08T04:25:08.763Z,0
2016-04-08T04:26:08.812Z,0
2016-04-08T04:27:08.768Z,0
2016-04-08T04:28:08.739Z,0
2016-04-08T04:29:08.758Z,0
2016-04-08T04:30:08.745Z,0
2016-04-08T04:31:08.748Z,0
2016-04-08T04:32:08.735Z,0
2016-04-08T04:33:08.738Z,0
2016-04-08T04:34:08.740Z,0
2016-04-08T04:35:08.711Z,0
2016-04-08T04:36:08.730Z,0
2016-04-08T04:37:08.716Z,0
2016-04-08T04:38:08.735Z,0
2016-04-08T04:39:08.707Z,0
2016-04-08T04:40:08.757Z,0
2016-04-08T04:41:08.697Z,0
2016-04-08T04:42:08.715Z,0
2016-04-08T04:43:08.718Z,0
2016-04-08T04:44:08.720Z,0
2016-04-08T04:45:08.707Z,0
2016-04-08T04:46:08.695Z,0
2016-04-08T04:47:08.697Z,0
2016-04-08T04:48:08.700Z,0
2016-04-08T04:49:08.702Z,0
2016-04-08T04:50:08.658Z,0
2016-04-08T04:51:08.739Z,0
2016-04-08T04:52:08.664Z,5
2016-04-08T04:53:08.697Z,5
2016-04-08T04:54:08.654Z,5
2016-04-08T04:55:08.672Z,5
2016-04-08T04:56:08.706Z,5
2016-04-08T04:57:07.928Z,5
2016-04-08T04:58:08.664Z,5
2016-04-08T04:59:08.636Z,5
2016-04-08T05:00:08.653Z,5
2016-04-08T05:01:08.641Z,5
2016-04-08T05:02:08.628Z,5
2016-04-08T05:03:08.630Z,5
2016-04-08T05:04:08.618Z,10
2016-04-08T05:05:08.651Z,10
2016-04-08T05:06:08.638Z,10
2016-04-08T05:07:08.626Z,10
2016-04-08T05:08:08.613Z,10
2016-04-08T05:09:08.616Z,10
2016-04-08T05:10:08.602Z,10
2016-04-08T05:11:08.621Z,10
2016-04-08T05:12:08.624Z,15
2016-04-08T05:13:08.610Z,15
2016-04-08T05:14:08.691Z,15
2016-04-08T05:15:08.616Z,15
2016-04-08T05:16:08.603Z,15
2016-04-08T05:17:08.575Z,20
2016-04-08T05:18:08.437Z,20
2016-04-08T05:19:08.596Z,20
2016-04-08T05:20:08.599Z,20
2016-04-08T05:21:08.585Z,25
2016-04-08T05:22:08.588Z,25
2016-04-08T05:23:08.559Z,25
2016-04-08T05:24:08.578Z,30
2016-04-08T05:25:08.440Z,30
2016-04-08T05:26:08.567Z,30
2016-04-08T05:27:08.586Z,30
2016-04-08T05:28:08.572Z,35
2016-04-08T05:29:08.591Z,35
2016-04-08T05:30:08.547Z,40
2016-04-08T05:31:08.909Z,40
2016-04-08T05:32:08.553Z,45
2016-04-08T05:33:08.399Z,45
2016-04-08T05:34:08.542Z,50
2016-04-08T05:35:08.561Z,55
2016-04-08T05:36:08.548Z,55
2016-04-08T05:37:08.535Z,55
2016-04-08T05:38:08.522Z,60
2016-04-08T05:39:08.540Z,60
2016-04-08T05:40:08.527Z,65
2016-04-08T05:41:08.546Z,65
2016-04-08T05:42:08.532Z,70
2016-04-08T05:43:08.566Z,70
2016-04-08T05:44:08.881Z,70
2016-04-08T05:45:08.540Z,75
2016-04-08T05:46:08.512Z,75
2016-04-08T05:47:08.545Z,75
2016-04-08T05:48:08.518Z,80
2016-04-08T05:49:08.504Z,80
2016-04-08T05:50:08.554Z,85
2016-04-08T05:51:08.526Z,80
2016-04-08T05:52:08.497Z,85
2016-04-08T05:53:08.562Z,85
2016-04-08T05:54:08.502Z,85
2016-04-08T05:55:08.489Z,90
2016-04-08T05:56:08.539Z,90
2016-04-08T05:57:08.494Z,90
2016-04-08T05:58:08.341Z,95
2016-04-08T05:59:08.484Z,95
2016-04-08T06:00:08.503Z,95
2016-04-08T06:01:08.522Z,100
2016-04-08T06:02:08.492Z,100
2016-04-08T06:03:08.448Z,105
2016-04-08T06:04:08.326Z,105
2016-04-08T06:05:08.469Z,110
2016-04-08T06:06:08.488Z,110
2016-04-08T06:07:08.444Z,110
2016-04-08T06:08:08.461Z,110
2016-04-08T06:09:08.480Z,110
2016-04-08T06:10:08.466Z,110
2016-04-08T06:11:08.438Z,115
2016-04-08T06:12:08.457Z,105
2016-04-08T06:13:08.460Z,110
2016-04-08T06:14:08.618Z,110
2016-04-08T06:15:08.497Z,110
2016-04-08T06:16:08.483Z,110
2016-04-08T06:17:11.455Z,115
2016-04-08T06:18:08.488Z,120
2016-04-08T06:19:08.491Z,120
2016-04-08T06:20:08.432Z,125
2016-04-08T06:21:08.434Z,125
2016-04-08T06:22:08.484Z,130
2016-04-08T06:23:08.440Z,130
2016-04-08T06:24:08.426Z,130
2016-04-08T06:25:08.445Z,130
2016-04-08T06:26:08.416Z,130
2016-04-08T06:27:08.434Z,130
2016-04-08T06:28:08.437Z,125
2016-04-08T06:29:08.486Z,125
2016-04-08T06:30:08.427Z,125
2016-04-08T06:31:08.430Z,125
2016-04-08T06:32:08.417Z,125
2016-04-08T06:33:08.420Z,130
2016-04-08T06:34:08.454Z,135
2016-04-08T06:35:08.409Z,130
2016-04-08T06:36:08.412Z,130
2016-04-08T06:37:08.431Z,130
2016-04-08T06:38:08.418Z,130
2016-04-08T06:39:08.436Z,130
2016-04-08T06:40:07.689Z,130
2016-04-08T06:41:08.411Z,130
2016-04-08T06:42:08.413Z,130
2016-04-08T06:43:08.431Z,135
2016-04-08T06:44:08.981Z,135
2016-04-08T06:45:08.405Z,140
2016-04-08T06:46:08.408Z,150
2016-04-08T06:47:08.411Z,150
2016-04-08T06:48:08.430Z,150
2016-04-08T06:49:08.401Z,155
2016-04-08T06:50:08.404Z,155
2016-04-08T06:51:08.374Z,155
2016-04-08T06:52:08.377Z,160
2016-04-08T06:53:08.379Z,155
2016-04-08T06:54:08.414Z,165
2016-04-08T06:55:08.401Z,160
2016-04-08T06:56:08.420Z,150
2016-04-08T06:57:08.390Z,175
2016-04-08T06:58:08.409Z,150
2016-04-08T06:59:08.881Z,155
2016-04-08T07:00:08.389Z,155
2016-04-08T07:01:08.375Z,185
2016-04-08T07:02:08.409Z,170
2016-04-08T07:03:08.396Z,210
2016-04-08T07:04:08.383Z,170
2016-04-08T07:05:08.369Z,175
2016-04-08T07:06:08.388Z,215
2016-04-08T07:07:08.407Z,235
2016-04-08T07:08:08.425Z,220
2016-04-08T07:09:08.381Z,170
2016-04-08T07:10:08.417Z,225
2016-04-08T07:11:08.419Z,190
2016-04-08T07:12:08.390Z,165
2016-04-08T07:13:08.470Z,170
2016-04-08T07:14:08.490Z,200
2016-04-08T07:15:08.445Z,155
2016-04-08T07:16:08.511Z,200
2016-04-08T07:17:08.716Z,150
2016-04-08T07:18:08.594Z,145
2016-04-08T07:19:08.456Z,140
2016-04-08T07:20:08.474Z,140
2016-04-08T07:21:08.711Z,140
2016-04-08T07:22:08.479Z,150
2016-04-08T07:23:08.467Z,145
2016-04-08T07:24:08.485Z,145
2016-04-08T07:25:08.503Z,160
2016-04-08T07:26:08.491Z,150
2016-04-08T07:27:08.477Z,150
2016-04-08T07:28:08.480Z,155
2016-04-08T07:29:08.498Z,160
2016-04-08T07:30:08.486Z,155
2016-04-08T07:31:08.473Z,150
2016-04-08T07:32:08.490Z,150
2016-04-08T07:33:08.478Z,150
2016-04-08T07:34:08.481Z,155
2016-04-08T07:35:08.484Z,150
2016-04-08T07:36:08.501Z,150
2016-04-08T07:37:08.473Z,150
2016-04-08T07:38:08.460Z,150
2016-04-08T07:39:08.479Z,155
2016-04-08T07:40:08.465Z,160
2016-04-08T07:41:08.515Z,160
2016-04-08T07:42:08.471Z,155
2016-04-08T07:43:08.490Z,160
2016-04-08T07:44:08.476Z,165
2016-04-08T07:45:08.463Z,165
2016-04-08T07:46:08.497Z,165
2016-04-08T07:47:08.500Z,165
2016-04-08T07:48:08.487Z,170
2016-04-08T07:49:08.475Z,180
2016-04-08T07:50:08.493Z,180
2016-04-08T07:51:08.480Z,180
2016-04-08T07:52:08.466Z,190
2016-04-08T07:53:08.533Z,190
2016-04-08T07:54:08.503Z,190
2016-04-08T07:55:08.506Z,185
2016-04-08T07:56:08.493Z,205
2016-04-08T07:57:11.496Z,195
2016-04-08T07:58:08.467Z,215
2016-04-08T07:59:08.469Z,195
2016-04-08T08:00:08.472Z,215
2016-04-08T08:01:08.460Z,205
2016-04-08T08:02:08.477Z,200
2016-04-08T08:03:08.480Z,220
2016-04-08T08:04:08.482Z,225
2016-04-08T08:05:08.908Z,215
2016-04-08T08:06:08.488Z,210
2016-04-08T08:07:08.476Z,210
2016-04-08T08:08:08.478Z,205
2016-04-08T08:09:08.481Z,210
2016-04-08T08:10:08.484Z,210
2016-04-08T08:11:08.486Z,205
2016-04-08T08:12:08.474Z,210
2016-04-08T08:13:07.711Z,225
2016-04-08T08:14:09.073Z,230
2016-04-08T08:15:08.653Z,240
2016-04-08T08:16:08.484Z,240
2016-04-08T08:17:09.128Z,245
2016-04-08T08:18:08.474Z,245
2016-04-08T08:19:08.477Z,250
2016-04-08T08:20:08.480Z,250
2016-04-08T08:21:08.498Z,250
2016-04-08T08:22:08.563Z,245
2016-04-08T08:23:08.503Z,250
2016-04-08T08:24:08.506Z,255
2016-04-08T08:25:08.524Z,260
2016-04-08T08:26:08.636Z,255
2016-04-08T08:27:08.514Z,255
2016-04-08T08:28:08.502Z,255
2016-04-08T08:29:08.504Z,260
2016-04-08T08:30:08.615Z,270
2016-04-08T08:31:08.541Z,265
2016-04-08T08:32:08.527Z,265
2016-04-08T08:33:08.530Z,270
2016-04-08T08:34:08.533Z,265
2016-04-08T08:35:08.535Z,265
2016-04-08T08:36:08.538Z,265
2016-04-08T08:37:08.557Z,250
2016-04-08T08:38:08.559Z,245
2016-04-08T08:39:08.562Z,240
2016-04-08T08:40:08.564Z,240
2016-04-08T08:41:08.551Z,235
2016-04-08T08:42:08.570Z,235
2016-04-08T08:43:08.572Z,230
2016-04-08T08:44:08.575Z,225
2016-04-08T08:45:08.609Z,220
2016-04-08T08:46:08.581Z,220
2016-04-08T08:47:09.598Z,220
2016-04-08T08:48:08.601Z,220
2016-04-08T08:49:08.620Z,215
2016-04-08T08:50:08.575Z,215
2016-04-08T08:51:07.844Z,215
2016-04-08T08:52:08.596Z,215
2016-04-08T08:53:08.600Z,215
2016-04-08T08:54:08.617Z,215
2016-04-08T08:55:08.620Z,220
2016-04-08T08:56:08.608Z,220
2016-04-08T08:57:08.610Z,210
2016-04-08T08:58:08.613Z,210
2016-04-08T08:59:08.616Z,195
2016-04-08T09:00:08.633Z,195
2016-04-08T09:01:08.621Z,190
2016-04-08T09:02:08.623Z,190
2016-04-08T09:03:08.627Z,185
2016-04-08T09:04:08.473Z,195
2016-04-08T09:05:08.616Z,195
2016-04-08T09:06:08.619Z,205
2016-04-08T09:07:08.621Z,205
2016-04-08T09:08:08.640Z,195
2016-04-08T09:09:08.611Z,200
2016-04-08T09:10:08.615Z,200
2016-04-08T09:11:08.617Z,205
2016-04-08T09:12:08.634Z,210
2016-04-08T09:13:08.622Z,210
2016-04-08T09:14:08.609Z,210
2016-04-08T09:15:08.628Z,215
2016-04-08T09:16:08.474Z,215
2016-04-08T09:17:08.648Z,225
2016-04-08T09:18:08.603Z,225
2016-04-08T09:19:08.622Z,215
2016-04-08T09:20:08.625Z,210
2016-04-08T09:21:08.612Z,210
2016-04-08T09:22:08.630Z,205
2016-04-08T09:23:09.258Z,215
2016-04-08T09:24:08.480Z,205
2016-04-08T09:25:08.638Z,205
2016-04-08T09:26:08.470Z,230
2016-04-08T09:27:08.660Z,215
2016-04-08T09:28:08.646Z,200
2016-04-08T09:29:08.666Z,235
2016-04-08T09:30:08.621Z,220
2016-04-08T09:31:08.686Z,230
2016-04-08T09:32:08.641Z,220
2016-04-08T09:33:08.644Z,220
2016-04-08T09:34:08.632Z,215
2016-04-08T09:35:08.650Z,215
2016-04-08T09:36:08.653Z,215
2016-04-08T09:37:08.640Z,215
2016-04-08T09:38:08.657Z,200
2016-04-08T09:39:08.645Z,205
2016-04-08T09:40:08.648Z,230
2016-04-08T09:41:08.665Z,205
2016-04-08T09:42:08.684Z,220
2016-04-08T09:43:08.656Z,195
2016-04-08T09:44:08.642Z,210
2016-04-08T09:45:08.676Z,220
2016-04-08T09:46:08.648Z,210
2016-04-08T09:47:08.651Z,210
2016-04-08T09:48:08.653Z,210
2016-04-08T09:49:08.640Z,200
2016-04-08T09:50:08.643Z,205
2016-04-08T09:51:08.661Z,210
2016-04-08T09:52:08.648Z,220
2016-04-08T09:53:08.636Z,230
2016-04-08T09:54:08.653Z,240
2016-04-08T09:55:08.642Z,235
2016-04-08T09:56:08.659Z,230
2016-04-08T09:57:08.646Z,245
2016-04-08T09:58:08.653Z,275
2016-04-08T09:59:08.671Z,270
2016-04-08T10:00:08.940Z,265
2016-04-08T10:01:08.662Z,265
2016-04-08T10:02:08.648Z,265
2016-04-08T10:03:08.667Z,260
2016-04-08T10:04:08.498Z,255
2016-04-08T10:05:08.687Z,250
2016-04-08T10:06:08.659Z,245
2016-04-08T10:07:08.645Z,240
2016-04-08T10:08:08.664Z,235
2016-04-08T10:09:08.651Z,240
2016-04-08T10:10:08.653Z,240
2016-04-08T10:11:08.673Z,240
2016-04-08T10:12:08.675Z,240
2016-04-08T10:13:08.693Z,235
2016-04-08T10:14:08.649Z,235
2016-04-08T10:15:08.683Z,230
2016-04-08T10:16:08.670Z,230
2016-04-08T10:17:08.672Z,230
2016-04-08T10:18:08.519Z,230
2016-04-08T10:19:08.694Z,230
2016-04-08T10:20:08.680Z,230
2016-04-08T10:21:08.684Z,230
2016-04-08T10:22:08.686Z,230
2016-04-08T10:23:08.673Z,230
2016-04-08T10:24:08.677Z,230
2016-04-08T10:25:08.679Z,230
2016-04-08T10:26:08.682Z,230
2016-04-08T10:27:08.668Z,235
2016-04-08T10:28:08.687Z,230
2016-04-08T10:29:08.690Z,230
2016-04-08T10:30:08.740Z,235
2016-04-08T10:31:08.679Z,230
2016-04-08T10:32:08.681Z,225
2016-04-08T10:33:08.700Z,230
2016-04-08T10:34:08.687Z,230
2016-04-08T10:35:08.675Z,225
2016-04-08T10:36:08.692Z,225
2016-04-08T10:37:08.695Z,220
2016-04-08T10:38:08.714Z,215
2016-04-08T10:39:08.701Z,210
2016-04-08T10:40:08.703Z,205
2016-04-08T10:41:08.706Z,205
2016-04-08T10:42:08.708Z,230
2016-04-08T10:43:08.712Z,230
2016-04-08T10:44:08.714Z,235
2016-04-08T10:45:08.780Z,230
2016-04-08T10:46:08.704Z,230
2016-04-08T10:47:08.722Z,230
2016-04-08T10:48:08.725Z,230
2016-04-08T10:49:08.744Z,225
2016-04-08T10:50:08.715Z,230
2016-04-08T10:51:08.795Z,230
2016-04-08T10:52:08.767Z,230
2016-04-08T10:53:08.723Z,235
2016-04-08T10:54:08.710Z,235
2016-04-08T10:55:08.712Z,235
2016-04-08T10:56:08.715Z,230
2016-04-08T10:57:08.734Z,240
2016-04-08T10:58:08.721Z,245
2016-04-08T10:59:08.724Z,245
2016-04-08T11:00:08.804Z,240
2016-04-08T11:01:08.709Z,240
2016-04-08T11:02:08.745Z,240
2016-04-08T11:03:08.731Z,240
2016-04-08T11:04:08.733Z,245
2016-04-08T11:05:08.737Z,250
2016-04-08T11:06:08.755Z,250
2016-04-08T11:07:08.758Z,250
2016-04-08T11:08:08.728Z,250
2016-04-08T11:09:08.747Z,250
2016-04-08T11:10:08.750Z,245
2016-04-08T11:11:08.753Z,245
2016-04-08T11:12:08.755Z,250
2016-04-08T11:13:07.977Z,255
2016-04-08T11:14:08.760Z,255
2016-04-08T11:15:08.685Z,255
2016-04-08T11:16:08.766Z,255
2016-04-08T11:17:08.769Z,260
2016-04-08T11:18:08.756Z,255
2016-04-08T11:19:08.587Z,260
2016-04-08T11:20:08.746Z,260
2016-04-08T11:21:08.764Z,260
2016-04-08T11:22:08.735Z,270
2016-04-08T11:23:08.768Z,270
2016-04-08T11:24:08.757Z,280
2016-04-08T11:25:08.774Z,280
2016-04-08T11:26:08.761Z,290
2016-04-08T11:27:08.795Z,295
2016-04-08T11:28:08.782Z,290
2016-04-08T11:29:08.770Z,290
2016-04-08T11:30:08.898Z,290
2016-04-08T11:31:08.790Z,295
2016-04-08T11:32:08.793Z,295
2016-04-08T11:33:08.780Z,295
2016-04-08T11:34:08.799Z,300
2016-04-08T11:35:08.801Z,295
2016-04-08T11:36:08.804Z,300
2016-04-08T11:37:08.839Z,300
2016-04-08T11:38:08.794Z,300
2016-04-08T11:39:08.844Z,300
2016-04-08T11:40:08.784Z,295
2016-04-08T11:41:08.833Z,295
2016-04-08T11:42:09.102Z,295
2016-04-08T11:43:08.823Z,295
2016-04-08T11:44:08.794Z,295
2016-04-08T11:45:08.921Z,300
2016-04-08T11:46:08.799Z,295
2016-04-08T11:47:08.803Z,290
2016-04-08T11:48:08.821Z,290
2016-04-08T11:49:08.793Z,290
2016-04-08T11:50:08.810Z,300
2016-04-08T11:51:08.813Z,300
2016-04-08T11:52:08.832Z,300
2016-04-08T11:53:08.835Z,300
2016-04-08T11:54:08.837Z,305
2016-04-08T11:55:08.839Z,315
2016-04-08T11:56:08.843Z,315
2016-04-08T11:57:08.845Z,310
2016-04-08T11:58:08.848Z,305
2016-04-08T11:59:08.695Z,305
2016-04-08T12:00:08.868Z,310
2016-04-08T12:01:08.856Z,315
2016-04-08T12:02:08.859Z,320
2016-04-08T12:03:08.845Z,325
2016-04-08T12:04:08.864Z,330
2016-04-08T12:05:08.866Z,330
2016-04-08T12:06:08.870Z,330
2016-04-08T12:07:08.856Z,325
2016-04-08T12:08:08.719Z,325
2016-04-08T12:09:08.884Z,325
2016-04-08T12:10:08.886Z,320
2016-04-08T12:11:08.873Z,320
2016-04-08T12:12:08.860Z,315
2016-04-08T12:13:08.894Z,295
2016-04-08T12:14:08.881Z,295
2016-04-08T12:15:08.931Z,295
2016-04-08T12:16:08.886Z,295
2016-04-08T12:17:08.936Z,295
2016-04-08T12:18:08.908Z,295
2016-04-08T12:19:08.910Z,290
2016-04-08T12:20:08.928Z,295
2016-04-08T12:21:08.883Z,295
2016-04-08T12:22:08.933Z,295
2016-04-08T12:23:08.921Z,295
2016-04-08T12:24:08.985Z,300
2016-04-08T12:25:08.894Z,300
2016-04-08T12:26:08.944Z,305
2016-04-08T12:27:09.118Z,320
2016-04-08T12:28:08.934Z,320
2016-04-08T12:29:08.937Z,315
2016-04-08T12:30:08.907Z,305
2016-04-08T12:31:08.910Z,310
2016-04-08T12:32:08.929Z,310
2016-04-08T12:33:08.916Z,310
2016-04-08T12:34:08.918Z,320
2016-04-08T12:35:08.953Z,325
2016-04-08T12:36:08.940Z,320
2016-04-08T12:37:08.958Z,310
2016-04-08T12:38:08.961Z,305
2016-04-08T12:39:08.948Z,305
2016-04-08T12:40:08.950Z,305
2016-04-08T12:41:08.978Z,300
2016-04-08T12:42:09.037Z,300
2016-04-08T12:43:09.065Z,295
2016-04-08T12:44:08.968Z,290
2016-04-08T12:45:09.167Z,285
2016-04-08T12:46:09.185Z,285
2016-04-08T12:47:09.202Z,290
2016-04-08T12:48:09.235Z,295
2016-04-08T12:49:09.236Z,300
2016-04-08T12:50:09.238Z,300
2016-04-08T12:51:09.246Z,300
2016-04-08T12:52:09.254Z,305
2016-04-08T12:53:09.294Z,325
2016-04-08T12:54:09.302Z,325
2016-04-08T12:55:09.310Z,325
2016-04-08T12:56:09.299Z,310
2016-04-08T12:57:09.319Z,325
2016-04-08T12:58:09.292Z,325
2016-04-08T12:59:09.328Z,320
2016-04-08T13:00:09.286Z,320
2016-04-08T13:01:09.351Z,315
2016-04-08T13:02:09.324Z,310
2016-04-08T13:03:09.311Z,315
2016-04-08T13:04:09.316Z,315
2016-04-08T13:05:09.350Z,320
2016-04-08T13:06:09.321Z,320
2016-04-08T13:07:09.340Z,315
2016-04-08T13:08:09.326Z,310
2016-04-08T13:09:09.346Z,300
2016-04-08T13:10:09.364Z,300
2016-04-08T13:11:09.335Z,310
2016-04-08T13:12:09.354Z,300
2016-04-08T13:13:09.356Z,300
2016-04-08T13:14:09.359Z,300
2016-04-08T13:15:09.596Z,305
2016-04-08T13:16:09.349Z,315
2016-04-08T13:17:09.351Z,315
2016-04-08T13:18:09.369Z,315
2016-04-08T13:19:09.357Z,310
2016-04-08T13:20:09.375Z,320
2016-04-08T13:21:09.362Z,325
2016-04-08T13:22:09.209Z,325
2016-04-08T13:23:09.399Z,320
2016-04-08T13:24:09.402Z,325
2016-04-08T13:25:09.373Z,320
2016-04-08T13:26:09.391Z,315
2016-04-08T13:27:09.410Z,290
2016-04-08T13:28:09.396Z,280
2016-04-08T13:29:09.399Z,280
2016-04-08T13:30:09.402Z,280
2016-04-08T13:31:09.421Z,280
2016-04-08T13:32:09.408Z,275
2016-04-08T13:33:09.410Z,275
2016-04-08T13:34:09.396Z,265
2016-04-08T13:35:09.416Z,265
2016-04-08T13:36:09.418Z,265
2016-04-08T13:37:09.920Z,265
2016-04-08T13:38:09.423Z,260
2016-04-08T13:39:09.426Z,260
2016-04-08T13:40:09.413Z,255
2016-04-08T13:41:09.495Z,255
2016-04-08T13:42:09.418Z,255
2016-04-08T13:43:09.437Z,255
2016-04-08T13:44:09.440Z,255
2016-04-08T13:45:09.598Z,255
2016-04-08T13:46:09.445Z,255
2016-04-08T13:47:09.447Z,250
2016-04-08T13:48:09.434Z,245
2016-04-08T13:49:09.437Z,240
2016-04-08T13:50:09.440Z,230
2016-04-08T13:51:09.459Z,225
2016-04-08T13:52:09.477Z,225
2016-04-08T13:53:09.480Z,220
2016-04-08T13:54:09.513Z,215
2016-04-08T13:55:09.470Z,215
2016-04-08T13:56:09.566Z,220
2016-04-08T13:57:09.458Z,220
2016-04-08T13:58:09.508Z,220
2016-04-08T13:59:09.496Z,220
2016-04-08T14:00:09.498Z,220
2016-04-08T14:01:09.502Z,220
2016-04-08T14:02:09.472Z,215
2016-04-08T14:03:09.507Z,215
2016-04-08T14:04:09.509Z,215
2016-04-08T14:05:09.512Z,215
2016-04-08T14:06:09.468Z,215
2016-04-08T14:07:09.532Z,220
2016-04-08T14:08:09.504Z,220